Time;durP1;ratioP1;P1;durP2;ratioP2;P2;SDS_P1;SDS_P2;PMS_P1;PMS_P2;Temp;Humidity;BMP_temperature;BMP_pressure;BME280_temperature;BME280_humidity;BME280_pressure;Samples;Min_cycle;Max_cycle;Signal;HPM_P1;HPM_P2
2023/09/04 00:01:11;;;;;;;5.22;3.65;;;;;;;18.58;57.61;99812.22;4481378;32;34120;-85
2023/09/04 00:03:39;;;;;;;5.90;4.18;;;;;;;18.41;58.01;99815.03;4491996;31;34026;-85
2023/09/04 00:06:07;;;;;;;6.93;3.70;;;;;;;18.35;58.35;99822.94;4496597;31;34101;-85
2023/09/04 00:08:34;;;;;;;6.40;4.12;;;;;;;18.35;58.06;99819.44;4497237;31;33641;-85
2023/09/04 00:11:02;;;;;;;6.65;3.40;;;;;;;18.50;57.77;99815.81;4498138;31;34808;-85
2023/09/04 00:13:29;;;;;;;6.82;3.80;;;;;;;18.48;58.21;99816.69;4497127;31;34260;-85
2023/09/04 00:15:57;;;;;;;7.30;3.80;;;;;;;18.62;57.73;99820.94;4496047;31;33678;-83
2023/09/04 00:18:24;;;;;;;6.53;3.65;;;;;;;18.48;58.22;99821.94;4487757;31;33965;-85
2023/09/04 00:20:53;;;;;;;5.57;3.70;;;;;;;17.95;59.62;99828.47;4493681;31;34260;-86
2023/09/04 00:23:21;;;;;;;6.22;3.90;;;;;;;18.21;58.47;99825.66;4495382;31;34617;-85
2023/09/04 00:25:48;;;;;;;6.57;3.92;;;;;;;18.04;59.19;99821.44;4493913;31;33393;-85
2023/09/04 00:28:18;;;;;;;8.25;3.75;;;;;;;18.12;58.72;99823.13;4490635;31;34029;-84
2023/09/04 00:30:46;;;;;;;5.95;3.85;;;;;;;18.18;57.98;99819.56;4497948;31;34302;-85
2023/09/04 00:33:14;;;;;;;6.37;4.12;;;;;;;18.06;58.54;99810.03;4483020;31;35201;-85
2023/09/04 00:35:41;;;;;;;6.20;3.65;;;;;;;18.08;59.24;99818.78;4480506;32;32972;-85
2023/09/04 00:38:09;;;;;;;6.95;4.45;;;;;;;18.32;58.87;99828.22;4480571;31;34656;-85
2023/09/04 00:40:37;;;;;;;6.75;4.10;;;;;;;18.34;58.74;99836.09;4481449;31;33837;-85
2023/09/04 00:43:05;;;;;;;7.62;4.78;;;;;;;18.37;58.59;99834.31;4483847;31;33568;-85
2023/09/04 00:45:34;;;;;;;5.93;4.25;;;;;;;18.34;58.84;99831.72;4482680;32;33012;-85
2023/09/04 00:48:05;;;;;;;5.87;3.85;;;;;;;18.24;58.78;99828.28;4483767;31;33779;-85
2023/09/04 00:50:33;;;;;;;7.05;4.25;;;;;;;18.34;58.62;99830.84;4482662;31;34109;-84
2023/09/04 00:53:02;;;;;;;7.70;4.62;;;;;;;18.04;59.53;99831.94;4482765;32;33587;-84
2023/09/04 00:55:31;;;;;;;6.82;4.10;;;;;;;18.06;59.65;99820.53;4482526;32;32658;-85
2023/09/04 00:57:59;;;;;;;5.78;4.10;;;;;;;17.67;60.52;99821.62;4483930;32;34050;-84
2023/09/04 01:00:27;;;;;;;6.70;4.20;;;;;;;17.87;60.56;99814.53;4482980;31;34538;-85
2023/09/04 01:02:56;;;;;;;6.62;4.22;;;;;;;17.97;60.24;99818.84;4483677;31;34884;-85
2023/09/04 01:05:25;;;;;;;6.62;4.40;;;;;;;18.14;59.60;99823.09;4482617;32;33661;-84
2023/09/04 01:07:54;;;;;;;6.75;3.87;;;;;;;18.01;59.82;99816.22;4483864;32;34885;-84
2023/09/04 01:10:21;;;;;;;5.60;3.97;;;;;;;18.11;60.16;99807.41;4482482;32;34222;-85
2023/09/04 01:12:50;;;;;;;6.90;4.03;;;;;;;18.03;60.67;99803.94;4483866;32;33871;-85
2023/09/04 01:15:18;;;;;;;6.40;3.92;;;;;;;18.19;59.43;99797.72;4486355;31;33557;-85
2023/09/04 01:17:47;;;;;;;5.78;4.07;;;;;;;18.25;59.98;99797.63;4484377;31;34924;-85
2023/09/04 01:20:26;;;;;;;5.50;3.72;;;;;;;18.22;60.22;99798.56;4498948;31;33892;-85
2023/09/04 01:22:56;;;;;;;7.07;4.22;;;;;;;18.32;59.69;99798.47;4498247;31;33993;-85
2023/09/04 01:25:41;;;;;;;7.45;4.30;;;;;;;18.18;59.85;99803.81;4498223;31;34301;-84
2023/09/04 01:28:33;;;;;;;8.60;4.30;;;;;;;18.33;59.53;99803.69;4484183;31;33515;-84
2023/09/04 01:31:04;;;;;;;5.65;3.53;;;;;;;18.18;59.79;99816.94;4496998;31;34207;-85
2023/09/04 01:33:39;;;;;;;6.40;3.78;;;;;;;18.19;59.83;99819.56;4485204;31;33959;-85
2023/09/04 01:36:10;;;;;;;5.65;3.87;;;;;;;18.21;59.80;99814.28;4469942;31;33849;-84
2023/09/04 01:38:38;;;;;;;6.47;4.10;;;;;;;18.09;59.71;99810.03;4482526;31;33978;-84
2023/09/04 01:41:06;;;;;;;6.40;3.92;;;;;;;18.08;59.93;99818.78;4497462;31;33881;-85
2023/09/04 01:43:33;;;;;;;6.57;3.72;;;;;;;17.72;60.85;99817.22;4499408;31;34339;-85
2023/09/04 01:46:01;;;;;;;6.12;4.12;;;;;;;17.93;60.57;99814.50;4499433;31;34188;-83
2023/09/04 01:48:29;;;;;;;6.45;3.85;;;;;;;17.61;61.50;99821.66;4482226;31;33805;-85
2023/09/04 01:50:56;;;;;;;5.93;3.78;;;;;;;17.65;61.42;99820.75;4483958;31;34340;-85
2023/09/04 01:53:24;;;;;;;6.32;4.12;;;;;;;17.62;61.58;99828.66;4481361;32;35509;-83
2023/09/04 01:55:52;;;;;;;6.37;4.62;;;;;;;17.46;62.39;99834.00;4469342;32;32940;-84
2023/09/04 01:58:19;;;;;;;9.18;4.97;;;;;;;17.18;63.46;99838.44;4482544;31;34633;-85
2023/09/04 02:00:48;;;;;;;6.10;4.00;;;;;;;17.29;63.40;99835.78;4483276;32;34150;-84
2023/09/04 02:03:15;;;;;;;7.30;4.60;;;;;;;17.19;63.71;99834.94;4483342;32;33970;-85
2023/09/04 02:05:44;;;;;;;7.32;4.57;;;;;;;16.90;64.74;99835.03;4482299;32;33550;-84
2023/09/04 02:08:12;;;;;;;7.72;4.57;;;;;;;17.03;64.43;99828.88;4483715;31;32935;-85
2023/09/04 02:10:40;;;;;;;7.47;4.90;;;;;;;17.18;64.06;99832.34;4483199;32;34959;-85
2023/09/04 02:13:07;;;;;;;7.10;4.20;;;;;;;16.74;65.61;99828.06;4482238;32;33781;-84
2023/09/04 02:15:36;;;;;;;6.43;4.68;;;;;;;16.89;65.12;99838.50;4484300;31;33173;-85
2023/09/04 02:18:05;;;;;;;6.80;4.50;;;;;;;16.57;66.14;99833.31;4480845;32;34048;-84
2023/09/04 02:20:33;;;;;;;6.82;4.65;;;;;;;16.99;64.82;99826.28;4483345;32;34571;-84
2023/09/04 02:23:01;;;;;;;6.40;4.18;;;;;;;16.64;65.50;99831.56;4494768;31;32908;-84
2023/09/04 02:25:29;;;;;;;7.65;4.55;;;;;;;16.61;65.91;99823.72;4492775;31;33549;-83
2023/09/04 02:27:57;;;;;;;7.05;4.35;;;;;;;16.36;66.97;99836.78;4498162;31;33693;-84
2023/09/04 02:30:24;;;;;;;6.07;4.50;;;;;;;16.68;65.77;99830.69;4498581;31;34649;-84
2023/09/04 02:32:58;;;;;;;7.82;4.53;;;;;;;16.45;66.80;99843.78;4484929;31;34703;-87
2023/09/04 02:35:27;;;;;;;8.80;4.50;;;;;;;16.65;66.16;99846.38;4497630;31;33459;-85
2023/09/04 02:37:55;;;;;;;7.10;4.78;;;;;;;16.11;68.10;99842.91;4496115;31;32664;-85
2023/09/04 02:40:22;;;;;;;7.18;4.68;;;;;;;16.11;68.36;99841.16;4488369;31;33480;-85
2023/09/04 02:42:50;;;;;;;5.65;4.20;;;;;;;16.27;68.04;99844.66;4483740;31;33818;-85
2023/09/04 02:45:17;;;;;;;6.28;4.47;;;;;;;16.87;65.87;99842.91;4489905;31;33689;-85
2023/09/04 02:47:46;;;;;;;6.60;4.30;;;;;;;17.14;64.75;99836.72;4484290;31;33598;-84
2023/09/04 02:50:14;;;;;;;8.60;4.60;;;;;;;17.26;64.29;99846.28;4484480;31;33719;-85
2023/09/04 02:52:41;;;;;;;6.10;3.92;;;;;;;17.52;63.62;99851.41;4499082;31;34374;-84
2023/09/04 02:55:11;;;;;;;8.05;4.47;;;;;;;17.19;64.63;99844.56;4499024;31;33445;-84
2023/09/04 02:57:39;;;;;;;7.95;4.60;;;;;;;16.81;65.96;99848.13;4477151;32;34085;-85
2023/09/04 03:00:07;;;;;;;6.93;3.92;;;;;;;16.76;66.00;99845.53;4483257;31;35144;-85
2023/09/04 03:02:35;;;;;;;7.53;4.53;;;;;;;16.73;66.37;99844.62;4484428;31;34130;-84
2023/09/04 03:05:04;;;;;;;6.97;4.80;;;;;;;16.82;65.96;99844.66;4496526;31;34333;-86
2023/09/04 03:07:32;;;;;;;6.45;4.60;;;;;;;16.55;67.05;99842.91;4498431;31;34709;-84
2023/09/04 03:10:00;;;;;;;7.62;4.97;;;;;;;16.61;66.97;99848.13;4498783;31;33688;-85
2023/09/04 03:12:31;;;;;;;7.07;5.18;;;;;;;16.38;67.80;99847.28;4483112;31;33600;-84
2023/09/04 03:15:01;;;;;;;7.78;5.28;;;;;;;16.14;68.80;99853.34;4483252;31;33893;-83
2023/09/04 03:17:32;;;;;;;7.75;5.60;;;;;;;16.18;68.80;99847.28;4482807;32;35407;-85
2023/09/04 03:20:00;;;;;;;7.25;5.07;;;;;;;16.49;67.74;99854.25;4482952;32;35604;-84
2023/09/04 03:22:28;;;;;;;8.07;5.43;;;;;;;16.45;67.66;99849.91;4468718;32;33634;-85
2023/09/04 03:24:55;;;;;;;6.72;5.15;;;;;;;16.64;67.00;99856.00;4483043;31;34596;-84
2023/09/04 03:27:23;;;;;;;8.52;5.10;;;;;;;16.70;66.91;99860.34;4483045;32;33532;-85
2023/09/04 03:29:51;;;;;;;7.03;5.10;;;;;;;16.40;67.91;99867.34;4482718;32;34015;-85
2023/09/04 03:32:19;;;;;;;7.03;4.85;;;;;;;16.38;68.19;99858.63;4483297;31;34204;-84
2023/09/04 03:34:48;;;;;;;9.10;5.70;;;;;;;16.14;69.32;99858.56;4482766;32;34545;-84
2023/09/04 03:37:15;;;;;;;9.57;5.32;;;;;;;16.04;69.59;99866.44;4482948;31;34795;-85
2023/09/04 03:39:43;;;;;;;9.27;5.90;;;;;;;16.09;69.50;99857.72;4482997;32;34196;-84
2023/09/04 03:42:12;;;;;;;8.45;5.28;;;;;;;16.18;69.22;99850.75;4482519;32;34026;-84
2023/09/04 03:44:39;;;;;;;6.80;4.97;;;;;;;16.14;69.39;99854.25;4484181;31;33578;-83
2023/09/04 03:47:07;;;;;;;7.70;5.60;;;;;;;16.20;69.20;99854.22;4489542;31;34463;-85
2023/09/04 03:49:35;;;;;;;9.38;5.68;;;;;;;16.24;68.73;99845.50;4486078;31;33478;-85
2023/09/04 03:52:03;;;;;;;7.75;5.40;;;;;;;16.50;67.73;99857.75;4482269;31;34755;-84
2023/09/04 03:54:31;;;;;;;8.00;4.85;;;;;;;16.67;66.92;99858.63;4496109;31;33521;-85
2023/09/04 03:56:59;;;;;;;7.03;4.85;;;;;;;16.92;66.05;99866.47;4485737;31;33420;-85
2023/09/04 03:59:27;;;;;;;6.97;4.78;;;;;;;17.11;64.91;99862.91;4481203;32;34665;-84
2023/09/04 04:01:54;;;;;;;6.90;4.87;;;;;;;17.01;65.38;99862.09;4495076;31;33475;-84
2023/09/04 04:04:22;;;;;;;7.57;5.00;;;;;;;16.98;65.61;99859.47;4494137;31;33343;-85
2023/09/04 04:06:49;;;;;;;7.12;5.12;;;;;;;17.17;64.99;99859.44;4495340;31;34583;-84
2023/09/04 04:09:21;;;;;;;7.15;4.90;;;;;;;17.23;64.53;99862.88;4484310;31;34607;-85
2023/09/04 04:11:51;;;;;;;7.45;5.22;;;;;;;17.17;64.85;99862.91;4485149;31;33844;-85
2023/09/04 04:14:18;;;;;;;5.93;4.30;;;;;;;17.37;63.90;99854.97;4482218;31;34018;-84
2023/09/04 04:16:46;;;;;;;7.60;5.07;;;;;;;17.16;64.56;99860.28;4482748;31;32330;-85
2023/09/04 04:19:15;;;;;;;9.55;5.47;;;;;;;17.11;64.75;99867.28;4489568;31;34902;-86
2023/09/04 04:21:43;;;;;;;7.85;4.87;;;;;;;17.12;64.62;99867.31;4483641;31;33635;-86
2023/09/04 04:24:11;;;;;;;8.68;5.43;;;;;;;17.33;64.01;99868.97;4482860;32;33320;-86
2023/09/04 04:26:39;;;;;;;6.47;4.97;;;;;;;17.21;64.34;99877.75;4469906;32;34514;-86
2023/09/04 04:29:07;;;;;;;6.87;4.53;;;;;;;17.17;64.73;99873.38;4488691;31;34867;-86
2023/09/04 04:31:34;;;;;;;8.95;4.97;;;;;;;17.26;64.15;99873.34;4499882;31;33989;-86
2023/09/04 04:34:03;;;;;;;6.75;5.05;;;;;;;17.52;63.55;99878.50;4499263;31;33621;-86
2023/09/04 04:36:31;;;;;;;8.50;4.72;;;;;;;17.50;63.44;99879.37;4498481;31;34185;-86
2023/09/04 04:38:58;;;;;;;7.07;4.85;;;;;;;17.50;63.64;99882.00;4497773;31;34048;-86
2023/09/04 04:41:26;;;;;;;5.95;4.07;;;;;;;17.30;63.96;99882.06;4487277;31;34201;-86
2023/09/04 04:43:54;;;;;;;14.18;4.95;;;;;;;17.48;64.67;99884.63;4499795;31;34259;-86
2023/09/04 04:46:22;;;;;;;7.32;4.95;;;;;;;18.14;63.41;99888.69;4485070;31;34837;-86
2023/09/04 04:48:50;;;;;;;7.47;4.03;;;;;;;18.47;61.96;99890.22;4470769;31;33080;-86
2023/09/04 04:51:17;;;;;;;7.12;4.00;;;;;;;18.36;60.51;99886.81;4460330;32;33650;-86
2023/09/04 04:53:45;;;;;;;6.65;4.10;;;;;;;18.71;60.04;99891.81;4468231;32;33035;-86
2023/09/04 04:56:13;;;;;;;9.02;5.12;;;;;;;19.20;57.89;99888.69;4454027;32;34242;-86
2023/09/04 04:58:40;;;;;;;5.97;4.22;;;;;;;19.09;58.92;99901.06;4468184;32;33915;-86
2023/09/04 05:01:08;;;;;;;6.12;4.00;;;;;;;19.42;56.98;99898.09;4469224;32;34291;-86
2023/09/04 05:03:36;;;;;;;6.95;4.37;;;;;;;19.57;56.61;99896.16;4484236;32;33830;-86
2023/09/04 05:06:08;;;;;;;5.90;3.90;;;;;;;19.56;56.41;99897.94;4483971;32;34500;-85
2023/09/04 05:08:36;;;;;;;5.75;4.03;;;;;;;19.54;56.78;99909.34;4457182;32;33791;-87
2023/09/04 05:11:05;;;;;;;6.43;4.37;;;;;;;19.38;57.07;99906.91;4454284;32;33027;-86
2023/09/04 05:13:33;;;;;;;5.47;3.80;;;;;;;19.52;56.62;99905.88;4454128;32;33807;-86
2023/09/04 05:16:04;;;;;;;7.65;4.20;;;;;;;20.42;55.06;99902.91;4468060;32;33518;-86
2023/09/04 05:18:32;;;;;;;7.07;4.07;;;;;;;20.49;54.46;99900.16;4454248;32;33977;-86
2023/09/04 05:21:06;;;;;;;8.00;3.80;;;;;;;20.84;53.53;99908.41;4482374;32;33671;-86
2023/09/04 05:23:34;;;;;;;6.28;3.65;;;;;;;20.73;53.72;99902.44;4450418;32;34265;-84
2023/09/04 05:26:02;;;;;;;6.60;4.43;;;;;;;20.22;54.75;99906.72;4467362;32;33583;-85
2023/09/04 05:28:30;;;;;;;5.22;3.53;;;;;;;20.03;55.28;99908.75;4473837;32;34205;-84
2023/09/04 05:31:03;;;;;;;6.35;3.92;;;;;;;20.10;55.34;99913.03;4481316;32;34032;-84
2023/09/04 05:33:31;;;;;;;5.68;3.53;;;;;;;20.24;55.43;99905.81;4466882;32;33419;-85
2023/09/04 05:36:00;;;;;;;5.93;4.10;;;;;;;20.02;55.47;99913.16;4483506;32;34715;-85
2023/09/04 05:38:28;;;;;;;5.72;4.20;;;;;;;19.88;55.50;99915.97;4469075;32;32754;-85
2023/09/04 05:40:56;;;;;;;12.27;4.57;;;;;;;19.93;55.85;99919.41;4483468;32;33569;-85
2023/09/04 05:43:23;;;;;;;7.15;3.80;;;;;;;19.99;55.95;99907.94;4456375;32;33253;-85
2023/09/04 05:45:52;;;;;;;7.40;3.67;;;;;;;20.46;54.84;99914.28;4469314;32;33978;-85
2023/09/04 05:48:20;;;;;;;7.50;3.90;;;;;;;19.75;56.37;99919.66;4474584;31;34351;-85
2023/09/04 05:50:47;;;;;;;6.20;3.83;;;;;;;19.73;56.35;99924.06;4499358;31;33530;-85
2023/09/04 05:53:16;;;;;;;8.00;3.85;;;;;;;19.63;57.25;99930.34;4498052;31;33062;-85
2023/09/04 05:55:43;;;;;;;6.20;4.30;;;;;;;19.39;58.02;99927.03;4498154;31;33593;-87
2023/09/04 05:58:12;;;;;;;6.07;4.10;;;;;;;19.35;58.38;99921.84;4498284;31;32658;-87
2023/09/04 06:00:40;;;;;;;8.73;3.95;;;;;;;19.65;57.55;99915.38;4499099;31;34183;-87
2023/09/04 06:03:09;;;;;;;7.40;3.70;;;;;;;19.43;58.54;99918.25;4499693;31;32859;-87
2023/09/04 06:05:37;;;;;;;6.97;4.03;;;;;;;19.75;57.93;99914.41;4498154;31;34417;-88
2023/09/04 06:08:04;;;;;;;10.60;4.70;;;;;;;19.83;58.52;99912.53;4497966;31;34107;-86
2023/09/04 06:10:32;;;;;;;6.95;4.00;;;;;;;19.87;57.02;99911.59;4499136;31;33581;-85
2023/09/04 06:12:59;;;;;;;6.70;4.40;;;;;;;19.84;58.05;99921.28;4499278;31;32675;-85
2023/09/04 06:15:27;;;;;;;6.20;3.92;;;;;;;19.77;57.85;99925.75;4499059;31;34400;-85
2023/09/04 06:17:55;;;;;;;6.55;4.07;;;;;;;19.53;58.82;99928.66;4499290;31;33750;-87
2023/09/04 06:20:22;;;;;;;6.80;4.20;;;;;;;19.49;58.71;99930.44;4499069;31;34435;-87
2023/09/04 06:22:50;;;;;;;8.43;4.55;;;;;;;19.26;59.64;99925.44;4498730;31;34088;-87
2023/09/04 06:25:18;;;;;;;7.07;4.00;;;;;;;19.39;59.83;99932.28;4498930;31;34646;-87
2023/09/04 06:27:45;;;;;;;5.97;3.92;;;;;;;19.82;58.77;99926.59;4499363;31;33789;-87
2023/09/04 06:30:13;;;;;;;9.75;4.62;;;;;;;19.71;58.43;99920.59;4498950;31;33076;-87
2023/09/04 06:32:40;;;;;;;8.30;4.10;;;;;;;19.59;58.71;99931.22;4498980;31;33380;-87
2023/09/04 06:35:08;;;;;;;7.25;3.85;;;;;;;19.50;58.68;99921.66;4497847;31;34712;-87
2023/09/04 06:37:35;;;;;;;6.37;4.22;;;;;;;19.79;58.52;99920.50;4497707;31;33778;-87
2023/09/04 06:40:04;;;;;;;7.65;4.35;;;;;;;19.99;57.92;99925.47;4497809;31;33653;-87
2023/09/04 06:42:31;;;;;;;6.78;4.10;;;;;;;19.88;58.18;99929.12;4484805;31;33941;-87
2023/09/04 06:44:58;;;;;;;6.50;4.00;;;;;;;19.90;57.74;99935.25;4498886;31;33120;-87
2023/09/04 06:47:26;;;;;;;6.07;3.60;;;;;;;19.78;58.52;99940.66;4497646;31;34035;-86
2023/09/04 06:49:54;;;;;;;5.68;3.45;;;;;;;20.25;56.99;99935.66;4498798;31;33899;-87
2023/09/04 06:52:21;;;;;;;6.37;4.00;;;;;;;19.84;57.21;99945.84;4497271;31;34384;-87
2023/09/04 06:54:49;;;;;;;7.05;3.97;;;;;;;19.82;57.35;99942.38;4498889;31;33991;-87
2023/09/04 06:57:16;;;;;;;6.22;3.92;;;;;;;19.96;57.66;99950.06;4498827;31;33842;-88
2023/09/04 06:59:44;;;;;;;5.20;3.35;;;;;;;20.23;57.38;99940.97;4498699;31;33900;-87
2023/09/04 07:02:12;;;;;;;7.45;3.85;;;;;;;20.24;56.19;99937.41;4497492;31;32818;-87
2023/09/04 07:04:39;;;;;;;7.12;4.05;;;;;;;20.27;56.44;99937.38;4497598;31;34038;-87
2023/09/04 07:07:07;;;;;;;7.47;4.03;;;;;;;20.61;55.79;99937.78;4498579;31;33601;-87
2023/09/04 07:09:35;;;;;;;7.00;4.25;;;;;;;19.96;58.34;99944.81;4484643;31;32435;-86
2023/09/04 07:12:03;;;;;;;6.30;3.90;;;;;;;20.32;58.35;99950.47;4497634;31;32452;-86
2023/09/04 07:14:31;;;;;;;7.45;4.15;;;;;;;20.42;57.05;99949.47;4497333;31;33924;-86
2023/09/04 07:16:58;;;;;;;6.62;3.85;;;;;;;20.37;56.76;99956.53;4497467;31;33650;-87
2023/09/04 07:19:36;;;;;;;7.72;3.72;;;;;;;20.49;57.05;99963.37;4497332;31;33598;-86
2023/09/04 07:22:03;;;;;;;5.10;3.40;;;;;;;20.93;55.26;99962.72;4497517;31;33947;-86
2023/09/04 07:24:31;;;;;;;6.45;3.85;;;;;;;21.22;54.12;99964.88;4498736;31;33925;-86
2023/09/04 07:26:58;;;;;;;6.37;3.35;;;;;;;21.50;54.44;99964.38;4497226;31;33638;-86
2023/09/04 07:29:26;;;;;;;10.10;3.65;;;;;;;21.67;53.50;99962.28;4497682;31;33177;-86
2023/09/04 07:31:55;;;;;;;5.62;3.22;;;;;;;21.87;52.87;99964.53;4498635;31;34299;-86
2023/09/04 07:34:23;;;;;;;6.40;3.03;;;;;;;21.77;52.04;99963.81;4498253;31;33468;-86
2023/09/04 07:36:52;;;;;;;6.65;3.15;;;;;;;22.15;51.83;99959.53;4498561;31;34322;-87
2023/09/04 07:39:19;;;;;;;8.63;3.58;;;;;;;22.45;51.81;99959.75;4498539;31;34480;-87
2023/09/04 07:41:47;;;;;;;5.32;3.35;;;;;;;22.37;51.63;99961.72;4498625;31;33255;-85
2023/09/04 07:44:14;;;;;;;6.07;3.08;;;;;;;22.64;50.51;99952.28;4498763;31;33569;-84
2023/09/04 07:46:42;;;;;;;5.22;2.67;;;;;;;22.93;48.72;99954.25;4498556;31;35428;-84
2023/09/04 07:49:09;;;;;;;7.43;3.22;;;;;;;22.94;46.44;99958.62;4497336;31;33447;-84
2023/09/04 07:51:37;;;;;;;6.97;2.90;;;;;;;23.18;48.03;99957.97;4497461;31;33556;-84
2023/09/04 07:54:05;;;;;;;6.00;2.85;;;;;;;23.00;48.44;99961.97;4497182;31;33476;-84
2023/09/04 07:56:32;;;;;;;5.47;3.33;;;;;;;22.93;48.83;99960.41;4497237;31;34094;-85
2023/09/04 07:59:09;;;;;;;6.10;2.55;;;;;;;23.04;48.17;99960.12;4498450;31;34317;-85
2023/09/04 08:01:38;;;;;;;5.40;2.92;;;;;;;23.43;46.29;99950.25;4498508;31;33181;-86
2023/09/04 08:04:06;;;;;;;6.55;2.20;;;;;;;23.07;47.60;99954.75;4498122;31;34178;-86
2023/09/04 08:06:33;;;;;;;7.20;2.58;;;;;;;23.42;45.16;99945.88;4498334;31;33833;-86
2023/09/04 08:09:01;;;;;;;6.47;2.90;;;;;;;23.70;47.58;99947.78;4496956;31;33502;-87
2023/09/04 08:11:29;;;;;;;4.70;2.30;;;;;;;23.27;44.21;99947.16;4483936;31;33174;-87
2023/09/04 08:13:56;;;;;;;4.60;2.20;;;;;;;23.40;42.63;99938.88;4498210;31;33670;-88
2023/09/04 08:16:24;;;;;;;4.53;2.17;;;;;;;23.47;42.74;99949.25;4496580;31;34191;-85
2023/09/04 08:18:52;;;;;;;5.93;2.60;;;;;;;23.45;43.22;99952.84;4496743;31;33559;-83
2023/09/04 08:21:19;;;;;;;6.70;2.78;;;;;;;23.72;41.94;99948.63;4498092;31;33169;-84
2023/09/04 08:23:47;;;;;;;5.20;2.42;;;;;;;23.85;42.95;99963.22;4498169;31;33468;-84
2023/09/04 08:26:15;;;;;;;4.22;2.10;;;;;;;23.14;42.16;99958.97;4498067;31;34179;-85
2023/09/04 08:28:43;;;;;;;6.30;2.47;;;;;;;23.24;43.05;99971.06;4496682;31;34354;-84
2023/09/04 08:31:10;;;;;;;4.22;2.22;;;;;;;23.12;40.96;99952.00;4497903;31;33647;-84
2023/09/04 08:33:38;;;;;;;3.92;1.98;;;;;;;23.89;39.92;99959.56;4483449;31;34727;-84
2023/09/04 08:36:06;;;;;;;4.87;2.12;;;;;;;24.04;39.75;99952.97;4497848;31;33607;-84
2023/09/04 08:38:33;;;;;;;4.87;1.77;;;;;;;24.07;39.07;99947.56;4496457;31;34527;-84
2023/09/04 08:41:05;;;;;;;4.15;1.85;;;;;;;24.12;37.67;99948.28;4496466;31;34101;-84
2023/09/04 08:43:35;;;;;;;3.78;1.70;;;;;;;24.46;36.25;99949.94;4496503;31;33807;-84
2023/09/04 08:46:05;;;;;;;5.12;1.90;;;;;;;24.37;35.86;99950.22;4497460;31;34103;-84
2023/09/04 08:48:39;;;;;;;5.10;2.08;;;;;;;24.34;35.57;99958.25;4496091;31;34432;-84
2023/09/04 08:51:08;;;;;;;6.15;1.73;;;;;;;24.10;35.60;99952.78;4497657;31;33836;-84
2023/09/04 08:53:36;;;;;;;5.72;1.98;;;;;;;24.31;35.71;99948.59;4496090;31;34424;-84
2023/09/04 08:56:04;;;;;;;5.43;1.80;;;;;;;24.08;37.24;99948.44;4497558;31;34164;-84
2023/09/04 08:58:32;;;;;;;4.47;2.15;;;;;;;24.21;36.56;99942.72;4483307;31;32461;-84
2023/09/04 09:01:00;;;;;;;4.37;1.52;;;;;;;24.41;36.25;99935.97;4483082;31;33077;-84
2023/09/04 09:03:28;;;;;;;3.30;1.62;;;;;;;24.31;36.79;99945.09;4497194;31;34632;-83
2023/09/04 09:05:57;;;;;;;4.57;1.87;;;;;;;24.80;35.94;99949.72;4499400;31;34051;-84
2023/09/04 09:08:25;;;;;;;4.25;1.85;;;;;;;24.28;35.86;99944.28;4485328;31;32048;-85
2023/09/04 09:10:52;;;;;;;5.00;1.70;;;;;;;24.77;36.06;99941.84;4485236;31;33277;-83
2023/09/04 09:13:20;;;;;;;3.97;1.70;;;;;;;24.89;35.59;99949.44;4498226;31;33807;-84
2023/09/04 09:15:48;;;;;;;3.97;1.87;;;;;;;24.93;34.28;99947.53;4485155;31;33055;-84
2023/09/04 09:18:36;;;;;;;4.45;1.90;;;;;;;25.26;35.45;99936.69;4499524;31;33259;-84
2023/09/04 09:21:40;;;;;;;3.78;1.70;;;;;;;25.23;34.28;99940.34;4498309;31;33269;-84
2023/09/04 09:24:17;;;;;;;5.40;1.77;;;;;;;25.10;32.89;99936.38;4434852;32;34491;-85
2023/09/04 09:26:47;;;;;;;3.87;1.50;;;;;;;25.09;32.12;99938.13;4488685;31;33704;-85
2023/09/04 09:29:17;;;;;;;4.82;1.67;;;;;;;25.17;33.83;99938.75;4485140;31;33624;-84
2023/09/04 09:31:45;;;;;;;4.25;1.60;;;;;;;25.39;34.38;99938.88;4498066;31;33416;-85
2023/09/04 09:34:14;;;;;;;4.35;1.75;;;;;;;24.73;31.80;99943.72;4498260;31;33589;-84
2023/09/04 09:36:42;;;;;;;4.68;2.00;;;;;;;24.74;32.21;99941.97;4499271;31;34094;-83
2023/09/04 09:39:09;;;;;;;5.07;1.65;;;;;;;25.11;35.32;99941.59;4499414;31;33736;-84
2023/09/04 09:41:37;;;;;;;4.03;1.67;;;;;;;25.14;33.50;99946.81;4498164;31;31856;-84
2023/09/04 09:44:05;;;;;;;3.58;1.55;;;;;;;24.58;31.17;99933.63;4499497;31;34682;-85
2023/09/04 09:46:36;;;;;;;4.30;1.70;;;;;;;24.71;33.44;99944.72;4499089;31;34598;-84
2023/09/04 09:49:06;;;;;;;4.18;1.85;;;;;;;24.85;33.68;99952.22;4497884;31;33146;-86
2023/09/04 09:51:35;;;;;;;4.10;1.77;;;;;;;25.11;33.21;99938.09;4498031;31;34082;-87
2023/09/04 09:54:05;;;;;;;3.78;1.92;;;;;;;25.33;34.22;99940.87;4497271;31;32285;-86
2023/09/04 09:56:33;;;;;;;3.25;1.50;;;;;;;25.31;33.73;99938.28;4498420;31;34789;-87
2023/09/04 09:59:04;;;;;;;4.18;1.70;;;;;;;25.27;32.70;99941.06;4497770;31;33508;-86
2023/09/04 10:01:32;;;;;;;3.35;1.45;;;;;;;25.23;33.93;99943.88;4498146;31;33454;-87
2023/09/04 10:04:00;;;;;;;8.18;1.73;;;;;;;24.75;33.46;99931.31;4484953;31;33732;-85
2023/09/04 10:06:34;;;;;;;5.62;1.75;;;;;;;24.80;33.97;99938.25;4499202;31;34193;-87
2023/09/04 10:09:07;;;;;;;4.78;2.00;;;;;;;24.94;35.27;99934.22;4499197;31;33887;-86
2023/09/04 10:11:39;;;;;;;3.83;1.80;;;;;;;24.99;34.96;99934.03;4498204;31;33327;-84
2023/09/04 10:14:24;;;;;;;6.40;1.83;;;;;;;24.89;34.46;99920.25;4497468;31;34058;-84
2023/09/04 10:16:56;;;;;;;3.70;1.52;;;;;;;25.40;33.12;99923.81;4497939;31;33776;-84
2023/09/04 10:19:30;;;;;;;6.35;1.52;;;;;;;25.66;32.84;99925.50;4484872;31;32796;-84
2023/09/04 10:22:06;;;;;;;5.78;1.90;;;;;;;25.70;32.56;99933.31;4497652;31;33895;-83
2023/09/04 10:24:46;;;;;;;5.18;2.03;;;;;;;25.78;31.65;99932.16;4498074;31;33792;-83
2023/09/04 10:27:16;;;;;;;4.80;1.92;;;;;;;25.75;32.63;99919.84;4498958;31;33678;-84
2023/09/04 10:29:51;;;;;;;3.90;2.00;;;;;;;25.80;33.87;99925.00;4484531;31;33343;-84
2023/09/04 10:32:19;;;;;;;3.03;1.60;;;;;;;26.14;31.32;99917.50;4497601;31;33590;-83
2023/09/04 10:34:46;;;;;;;4.75;2.00;;;;;;;26.00;31.70;99925.13;4497695;31;33902;-83
2023/09/04 10:37:14;;;;;;;4.90;1.80;;;;;;;25.97;31.73;99914.63;4471025;31;33846;-85
2023/09/04 10:39:45;;;;;;;4.32;1.90;;;;;;;26.04;34.35;99921.44;4497500;31;33930;-84
2023/09/04 10:42:20;;;;;;;;;;;;;;;25.70;33.11;99920.03;4498141;31;34120;-84
2023/09/04 10:44:51;;;;;;;4.68;1.98;;;;;;;26.08;32.93;99916.87;4497693;31;34369;-84
2023/09/04 10:47:20;;;;;;;4.20;1.60;;;;;;;26.07;31.93;99920.47;4497685;31;33864;-84
2023/09/04 10:49:48;;;;;;;8.48;2.10;;;;;;;25.78;32.78;99924.19;4499089;31;34321;-85
2023/09/04 10:52:16;;;;;;;3.70;1.70;;;;;;;26.07;33.06;99931.09;4497580;31;33119;-84
2023/09/04 10:54:44;;;;;;;4.72;1.90;;;;;;;26.30;32.19;99923.06;4484750;31;33453;-84
2023/09/04 10:57:12;;;;;;;3.70;1.67;;;;;;;25.90;34.58;99921.97;4498869;31;33997;-83
2023/09/04 10:59:55;;;;;;;5.18;1.58;;;;;;;25.87;34.02;99934.50;4498696;31;33787;-84
2023/09/04 11:02:28;;;;;;;5.28;1.60;;;;;;;25.86;33.01;99924.78;4499132;31;33790;-83
2023/09/04 11:04:59;;;;;;;;;;;;;;;26.04;31.21;99921.44;4497906;31;33966;-84
2023/09/04 11:07:32;;;;;;;5.65;2.00;;;;;;;26.07;32.39;99916.00;4498972;31;34043;-84
2023/09/04 11:10:13;;;;;;;3.42;1.65;;;;;;;26.17;31.23;99897.88;4497547;31;33575;-83
2023/09/04 11:12:44;;;;;;;3.97;1.70;;;;;;;26.38;34.18;99914.78;4498632;31;34313;-84
2023/09/04 11:15:15;;;;;;;3.50;1.73;;;;;;;25.76;31.80;99910.09;4484405;31;33661;-84
2023/09/04 11:17:49;;;;;;;3.85;1.80;;;;;;;25.66;32.50;99907.78;4497429;31;33325;-84
2023/09/04 11:20:18;;;;;;;4.05;1.73;;;;;;;25.64;32.48;99899.00;4497477;31;32711;-85
2023/09/04 11:22:49;;;;;;;4.30;1.90;;;;;;;25.40;33.81;99910.53;4498488;31;33582;-84
2023/09/04 11:25:19;;;;;;;4.03;2.03;;;;;;;25.38;33.02;99894.69;4484933;31;32503;-83
2023/09/04 11:27:47;;;;;;;3.85;2.05;;;;;;;25.41;33.19;99913.12;4496100;31;34488;-83
2023/09/04 11:30:15;;;;;;;4.05;1.65;;;;;;;25.81;31.84;99902.87;4498558;31;33266;-83
2023/09/04 11:32:47;;;;;;;5.65;2.17;;;;;;;26.12;35.00;99908.72;4498957;31;32790;-83
2023/09/04 11:35:15;;;;;;;5.60;2.35;;;;;;;26.13;31.02;99901.59;4498775;31;34016;-85
2023/09/04 11:37:43;;;;;;;3.95;1.75;;;;;;;26.02;32.98;99907.34;4498762;31;34974;-85
2023/09/04 11:40:13;;;;;;;6.10;1.83;;;;;;;25.96;33.30;99899.63;4497328;31;32586;-84
2023/09/04 11:42:41;;;;;;;3.95;1.70;;;;;;;26.18;32.14;99892.53;4498449;31;33935;-85